Portada
METAR-TAF:

METAR-TAF

Aeroports :

Røst, Noruega

latitud: 67-31N, longitud: 012-06E, altitud: 4 m

Observació

L'informe es va fer fa 23 minuts, a les 13:50 UTC
Vent 9 kt del Nord
Temperatura 7°C
Humitat 76%
Pressió 1015 hPa
Visibilitat 10 km o més
Escasses núvols a una alçada de 1500 ft
Cel ennuvolat a una alçada de 3000 ft

METAR: ENRS 031350Z 01009KT 9999 FEW015 BKN030 07/03 Q1015

Hora: 16:13 (14:13 UTC)


TAF: manca

Observacions i pronòstics meteorològics de més de 4000 aeroports (METAR i TAF).

Les estacions disponibles són els punts grocs i vermells al mapa.

Posi el ratolí al punt desitjat per veure el nom de l'estació.

Feu clic per veure les observacions i els pronòstics meteorològics.

Per canviar el mapa: feu clic els botons verds amb una creu de color negre per apropar; al botó verd amb un guió per allunyar la imatge; o en les fletxes verdes per a mapes adjacents.


METAR-TAF: